createdAt,value
2022-08-14T00:01:36.920Z,70.96
2022-08-14T00:04:32.244Z,71.25
2022-08-14T00:06:50.672Z,71.03
2022-08-14T00:09:17.681Z,71.18
2022-08-14T00:11:44.463Z,71.08
2022-08-14T00:14:17.340Z,70.91
2022-08-14T00:16:45.173Z,71.01
2022-08-14T00:19:19.487Z,70.99
2022-08-14T00:21:52.428Z,70.86
2022-08-14T00:24:23.388Z,71.05
2022-08-14T00:26:56.256Z,71.10
2022-08-14T00:29:25.384Z,70.19
2022-08-14T00:31:54.528Z,70.47
2022-08-14T00:34:36.534Z,70.25
2022-08-14T00:37:11.682Z,70.46
2022-08-14T00:39:39.755Z,70.64
2022-08-14T00:42:07.636Z,70.52
2022-08-14T00:44:48.646Z,70.46
2022-08-14T00:47:17.568Z,70.57
2022-08-14T00:49:45.602Z,70.54
2022-08-14T00:52:18.033Z,70.55
2022-08-14T00:54:46.156Z,71.16
2022-08-14T00:57:13.049Z,71.26
2022-08-14T00:59:41.414Z,71.54
2022-08-14T01:02:09.674Z,71.98
2022-08-14T01:04:54.009Z,72.29
2022-08-14T01:07:23.035Z,72.53
2022-08-14T01:09:55.866Z,72.67
2022-08-14T01:12:27.065Z,72.55
2022-08-14T01:15:02.057Z,72.79
2022-08-14T01:17:50.844Z,72.91
2022-08-14T01:20:40.647Z,72.83
2022-08-14T01:23:16.104Z,72.58
2022-08-14T01:25:48.144Z,72.72
2022-08-14T01:28:46.999Z,72.90
2022-08-14T01:31:05.908Z,72.69
2022-08-14T01:33:59.101Z,72.25
2022-08-14T01:36:23.010Z,72.50
2022-08-14T01:38:51.796Z,72.66
2022-08-14T01:41:23.066Z,72.04
2022-08-14T01:44:02.470Z,71.93
2022-08-14T01:46:36.753Z,71.62
2022-08-14T01:49:07.557Z,71.74
2022-08-14T01:51:35.258Z,71.85
2022-08-14T01:54:21.159Z,72.16
2022-08-14T01:56:56.914Z,71.96
2022-08-14T01:59:37.893Z,72.17
2022-08-14T02:02:19.895Z,72.60
2022-08-14T02:04:57.253Z,72.52
2022-08-14T02:07:27.276Z,72.20
2022-08-14T02:10:15.412Z,72.95
2022-08-14T02:12:43.471Z,72.93
2022-08-14T02:15:11.474Z,72.86
2022-08-14T02:17:38.911Z,72.88
2022-08-14T02:20:08.579Z,72.78
2022-08-14T02:22:47.235Z,72.75
2022-08-14T02:25:16.752Z,72.67
2022-08-14T02:28:24.385Z,72.95
2022-08-14T02:30:33.853Z,73.02
2022-08-14T02:33:01.571Z,73.15
2022-08-14T02:35:32.849Z,73.45
2022-08-14T02:38:00.985Z,73.36
2022-08-14T02:40:33.800Z,73.85
2022-08-14T02:43:02.678Z,74.26
2022-08-14T02:45:38.886Z,74.55
2022-08-14T02:49:04.190Z,74.43
2022-08-14T02:51:04.115Z,74.48
2022-08-14T02:53:31.634Z,75.03
2022-08-14T02:56:02.562Z,75.24
2022-08-14T02:58:33.048Z,75.38
2022-08-14T03:01:01.305Z,75.54
2022-08-14T03:03:31.714Z,75.73
2022-08-14T03:06:00.254Z,75.91
2022-08-14T03:08:31.815Z,76.14
2022-08-14T03:10:59.675Z,76.28
2022-08-14T03:13:27.416Z,76.25
2022-08-14T03:15:58.016Z,76.24
2022-08-14T03:18:31.218Z,75.87
2022-08-14T03:21:07.944Z,75.98
2022-08-14T03:23:38.597Z,75.69
2022-08-14T03:26:30.179Z,75.43
2022-08-14T03:29:01.120Z,75.42
2022-08-14T03:31:29.456Z,75.22
2022-08-14T03:34:00.160Z,75.05
2022-08-14T03:37:37.633Z,75.51
2022-08-14T03:39:22.729Z,75.58
2022-08-14T03:41:53.835Z,75.60
2022-08-14T03:45:18.984Z,75.51
2022-08-14T03:47:08.394Z,75.07
2022-08-14T03:49:35.286Z,75.08
2022-08-14T03:52:28.016Z,75.29
2022-08-14T03:54:55.723Z,74.81
2022-08-14T03:57:22.807Z,75.02
2022-08-14T03:59:50.638Z,74.94
2022-08-14T04:02:33.019Z,75.36
2022-08-14T04:05:12.741Z,75.41
2022-08-14T04:07:49.967Z,75.03
2022-08-14T04:10:32.696Z,75.27
2022-08-14T04:13:04.470Z,75.14
2022-08-14T04:15:55.960Z,75.18
2022-08-14T04:18:21.564Z,75.57
2022-08-14T04:20:51.724Z,75.27
2022-08-14T04:23:29.709Z,75.02
2022-08-14T04:26:01.267Z,74.81
2022-08-14T04:29:08.053Z,74.64
2022-08-14T04:31:16.106Z,74.64
2022-08-14T04:33:42.884Z,74.71
2022-08-14T04:36:15.917Z,74.48
2022-08-14T04:39:02.837Z,75.11
2022-08-14T04:41:48.310Z,75.71
2022-08-14T04:44:36.136Z,75.41
2022-08-14T04:47:23.811Z,75.23
2022-08-14T04:49:56.939Z,75.37
2022-08-14T04:52:24.896Z,75.32
2022-08-14T04:54:52.386Z,75.05
2022-08-14T04:57:21.866Z,75.19
2022-08-14T04:59:49.594Z,75.10
2022-08-14T05:02:18.223Z,75.21
2022-08-14T05:04:56.806Z,74.93
2022-08-14T05:07:54.416Z,74.68
2022-08-14T05:10:16.773Z,75.16
2022-08-14T05:13:13.510Z,75.10
2022-08-14T05:15:39.640Z,75.43
2022-08-14T05:18:17.784Z,75.34
2022-08-14T05:21:57.477Z,75.55
2022-08-14T05:23:48.779Z,75.45
2022-08-14T05:26:18.267Z,75.57
2022-08-14T05:28:46.161Z,75.58
2022-08-14T05:31:20.755Z,75.77
2022-08-14T05:33:56.561Z,75.38
2022-08-14T05:36:25.697Z,75.11
2022-08-14T05:38:54.045Z,74.76
2022-08-14T05:41:22.257Z,74.74
2022-08-14T05:43:49.464Z,74.50
2022-08-14T05:46:22.697Z,74.04
2022-08-14T05:48:57.297Z,73.86
2022-08-14T05:51:25.565Z,73.86
2022-08-14T05:54:01.549Z,73.73
2022-08-14T05:56:38.999Z,74.01
2022-08-14T05:59:06.110Z,73.82
2022-08-14T06:01:34.291Z,73.71
2022-08-14T06:04:02.098Z,73.96
2022-08-14T06:06:36.428Z,74.81
2022-08-14T06:09:05.673Z,74.85
2022-08-14T06:11:36.803Z,75.20
2022-08-14T06:14:03.606Z,75.29
2022-08-14T06:16:30.380Z,75.39
2022-08-14T06:19:00.175Z,75.72
2022-08-14T06:21:27.374Z,75.95
2022-08-14T06:23:54.103Z,75.59
2022-08-14T06:26:22.388Z,75.94
2022-08-14T06:28:52.102Z,75.24
2022-08-14T06:31:20.979Z,75.35
2022-08-14T06:35:04.398Z,74.46
2022-08-14T06:36:36.659Z,74.21
2022-08-14T06:39:03.941Z,73.60
2022-08-14T06:41:58.290Z,72.92
2022-08-14T06:44:30.349Z,72.36
2022-08-14T06:46:59.863Z,72.13
2022-08-14T06:49:27.301Z,71.81
2022-08-14T06:51:57.084Z,72.11
2022-08-14T06:54:23.785Z,71.51
2022-08-14T06:56:58.578Z,70.74
2022-08-14T06:59:25.281Z,70.64
2022-08-14T07:02:13.134Z,70.22
2022-08-14T07:04:59.044Z,69.21
2022-08-14T07:07:25.711Z,68.43
2022-08-14T07:09:55.464Z,68.09
2022-08-14T07:12:55.044Z,65.54
2022-08-14T07:15:09.848Z,63.99
2022-08-14T07:17:47.096Z,64.19
2022-08-14T07:20:20.555Z,65.01
2022-08-14T07:23:05.331Z,63.58
2022-08-14T07:25:37.462Z,63.58
2022-08-14T07:28:23.780Z,62.57
2022-08-14T07:30:52.521Z,63.75
2022-08-14T07:33:29.212Z,63.69
2022-08-14T07:36:00.014Z,62.96
2022-08-14T07:38:33.704Z,63.13
2022-08-14T07:41:11.673Z,63.74
2022-08-14T07:43:42.828Z,62.83
2022-08-14T07:46:10.837Z,63.25
2022-08-14T07:48:43.803Z,64.02
2022-08-14T07:51:11.496Z,63.03
2022-08-14T07:53:40.717Z,62.49
2022-08-14T07:56:44.519Z,61.42
2022-08-14T07:58:58.402Z,62.46
2022-08-14T08:01:26.316Z,62.96
2022-08-14T08:03:59.535Z,62.99
2022-08-14T08:06:27.564Z,63.14
2022-08-14T08:09:01.229Z,63.54
2022-08-14T08:11:34.794Z,63.72
2022-08-14T08:14:17.311Z,61.88
2022-08-14T08:16:50.982Z,62.68
2022-08-14T08:19:19.246Z,63.72
2022-08-14T08:21:47.106Z,64.30
2022-08-14T08:24:20.152Z,62.22
2022-08-14T08:26:50.256Z,62.76
2022-08-14T08:29:28.294Z,62.91
2022-08-14T08:31:55.903Z,61.71
2022-08-14T08:34:24.140Z,61.04
2022-08-14T08:36:51.672Z,62.16
2022-08-14T08:39:22.400Z,63.21
2022-08-14T08:41:53.181Z,61.36
2022-08-14T08:44:31.938Z,62.50
2022-08-14T08:47:05.550Z,61.43
2022-08-14T08:49:43.223Z,61.91
2022-08-14T08:52:25.165Z,61.95
2022-08-14T08:54:58.014Z,63.60
2022-08-14T08:57:25.566Z,63.19
2022-08-14T08:59:55.328Z,62.56
2022-08-14T09:02:27.555Z,63.55
2022-08-14T09:05:02.015Z,64.55
2022-08-14T09:07:28.815Z,64.08
2022-08-14T09:10:00.030Z,63.25
2022-08-14T09:12:32.129Z,64.44
2022-08-14T09:15:13.387Z,64.14
2022-08-14T09:17:42.323Z,64.72
2022-08-14T09:20:11.512Z,64.55
2022-08-14T09:22:47.830Z,64.38
2022-08-14T09:25:16.568Z,63.91
2022-08-14T09:27:43.758Z,63.94
2022-08-14T09:30:31.633Z,65.17
2022-08-14T09:33:30.598Z,64.39
2022-08-14T09:36:36.142Z,63.67
2022-08-14T09:39:42.275Z,63.45
2022-08-14T09:42:45.278Z,63.07
2022-08-14T09:45:25.317Z,63.48
2022-08-14T09:47:57.645Z,64.25
2022-08-14T09:50:30.046Z,64.62
2022-08-14T09:53:04.759Z,63.14
2022-08-14T09:55:42.640Z,63.10
2022-08-14T09:58:19.859Z,63.04
2022-08-14T10:00:54.906Z,62.75
2022-08-14T10:03:33.840Z,63.45
2022-08-14T10:06:13.726Z,61.46
2022-08-14T10:08:53.099Z,61.03
2022-08-14T10:11:25.019Z,61.89
2022-08-14T10:14:21.133Z,61.45
2022-08-14T10:17:05.206Z,62.40
2022-08-14T10:19:36.444Z,62.56
2022-08-14T10:23:15.168Z,63.08
2022-08-14T10:24:55.677Z,61.85
2022-08-14T10:27:25.300Z,60.60
2022-08-14T10:30:01.004Z,60.14
2022-08-14T10:32:39.964Z,60.76
2022-08-14T10:35:14.572Z,60.12
2022-08-14T10:37:52.642Z,61.12
2022-08-14T10:40:37.506Z,61.53
2022-08-14T10:43:22.972Z,60.20
2022-08-14T10:46:03.454Z,59.96
2022-08-14T10:48:55.066Z,59.62
2022-08-14T10:51:30.205Z,60.15
2022-08-14T10:54:26.085Z,59.41
2022-08-14T10:57:20.697Z,59.95
2022-08-14T10:59:59.693Z,58.80
2022-08-14T11:02:54.254Z,59.28
2022-08-14T11:05:23.634Z,59.38
2022-08-14T11:08:02.611Z,58.88
2022-08-14T11:10:45.851Z,57.98
2022-08-14T11:13:27.377Z,58.13
2022-08-14T11:16:00.534Z,58.22
2022-08-14T11:18:30.295Z,59.55
2022-08-14T11:21:06.770Z,59.12
2022-08-14T11:23:38.668Z,58.80
2022-08-14T11:26:08.729Z,57.70
2022-08-14T11:28:46.863Z,58.35
2022-08-14T11:31:19.559Z,59.07
2022-08-14T11:33:50.350Z,58.04
2022-08-14T11:36:18.753Z,56.94
2022-08-14T11:38:46.834Z,57.34
2022-08-14T11:41:16.963Z,57.52
2022-08-14T11:43:58.565Z,57.15
2022-08-14T11:46:29.735Z,55.49
2022-08-14T11:49:05.568Z,54.36
2022-08-14T11:51:42.924Z,54.07
2022-08-14T11:54:34.674Z,53.69
2022-08-14T11:57:02.382Z,53.41
2022-08-14T11:59:33.854Z,51.98
2022-08-14T12:02:39.109Z,52.30
2022-08-14T12:05:01.038Z,51.29
2022-08-14T12:07:31.210Z,51.63
2022-08-14T12:09:59.471Z,52.31
2022-08-14T12:12:35.295Z,53.20
2022-08-14T12:15:04.013Z,52.54
2022-08-14T12:17:47.530Z,52.24
2022-08-14T12:20:32.251Z,51.54
2022-08-14T12:23:01.496Z,51.76
2022-08-14T12:25:29.270Z,52.32
2022-08-14T12:27:59.382Z,53.45
2022-08-14T12:30:48.716Z,52.84
2022-08-14T12:33:30.906Z,52.60
2022-08-14T12:36:04.376Z,51.97
2022-08-14T12:38:44.379Z,53.99
2022-08-14T12:41:21.950Z,53.43
2022-08-14T12:44:01.907Z,52.69
2022-08-14T12:46:46.611Z,53.07
2022-08-14T12:49:18.899Z,53.12
2022-08-14T12:51:56.040Z,51.93
2022-08-14T12:54:28.181Z,51.84
2022-08-14T12:57:14.599Z,53.03
2022-08-14T12:59:46.103Z,52.78
2022-08-14T13:02:25.412Z,52.96
2022-08-14T13:04:55.592Z,52.77
2022-08-14T13:07:22.505Z,53.30
2022-08-14T13:09:56.267Z,52.48
2022-08-14T13:12:32.332Z,52.82
2022-08-14T13:15:08.853Z,52.96
2022-08-14T13:17:41.980Z,53.13
2022-08-14T13:20:24.390Z,53.20
2022-08-14T13:22:54.957Z,53.53
2022-08-14T13:25:27.391Z,52.65
2022-08-14T13:27:57.837Z,53.54
2022-08-14T13:30:25.884Z,53.05
2022-08-14T13:32:58.017Z,53.71
2022-08-14T13:35:26.421Z,53.10
2022-08-14T13:37:54.109Z,53.54
2022-08-14T13:40:26.661Z,53.85
2022-08-14T13:42:55.391Z,53.75
2022-08-14T13:45:33.886Z,53.73
2022-08-14T13:48:19.152Z,53.29
2022-08-14T13:50:59.720Z,53.20
2022-08-14T13:53:33.804Z,53.22
2022-08-14T13:56:01.578Z,52.35
2022-08-14T13:58:34.555Z,51.85
2022-08-14T14:01:02.688Z,51.51
2022-08-14T14:03:35.210Z,52.65
2022-08-14T14:06:03.544Z,52.79
2022-08-14T14:08:46.851Z,51.88
2022-08-14T14:11:24.203Z,51.71
2022-08-14T14:13:58.413Z,50.93
2022-08-14T14:16:30.665Z,51.03
2022-08-14T14:19:09.489Z,50.82
2022-08-14T14:21:37.652Z,51.66
2022-08-14T14:24:06.168Z,52.09
2022-08-14T14:26:33.354Z,51.60
2022-08-14T14:29:06.331Z,52.41
2022-08-14T14:31:36.560Z,52.64
2022-08-14T14:34:07.709Z,51.57
2022-08-14T14:36:50.100Z,51.74
2022-08-14T14:39:21.924Z,51.90
2022-08-14T14:41:56.412Z,52.74
2022-08-14T14:44:26.804Z,51.89
2022-08-14T14:46:53.832Z,51.43
2022-08-14T14:49:31.845Z,51.94
2022-08-14T14:52:13.952Z,52.75
2022-08-14T14:54:53.188Z,53.22
2022-08-14T14:57:19.878Z,53.83
2022-08-14T14:59:46.709Z,53.71
2022-08-14T15:02:33.748Z,54.73
2022-08-14T15:05:00.925Z,55.07
2022-08-14T15:07:29.760Z,55.36
2022-08-14T15:09:56.614Z,55.03
2022-08-14T15:12:55.663Z,55.37
2022-08-14T15:15:12.278Z,55.48
2022-08-14T15:17:43.333Z,55.93
2022-08-14T15:20:17.495Z,55.61
2022-08-14T15:22:57.180Z,55.79
2022-08-14T15:25:24.337Z,55.97
2022-08-14T15:27:54.362Z,56.34
2022-08-14T15:30:24.322Z,56.19
2022-08-14T15:32:58.699Z,56.63
2022-08-14T15:35:25.852Z,56.56
2022-08-14T15:37:56.482Z,56.75
2022-08-14T15:40:23.656Z,56.94
2022-08-14T15:42:50.858Z,56.94
2022-08-14T15:45:18.959Z,56.87
2022-08-14T15:47:45.641Z,56.65
2022-08-14T15:50:13.063Z,56.89
2022-08-14T15:52:41.516Z,57.66
2022-08-14T15:55:15.455Z,57.47
2022-08-14T15:57:51.765Z,57.85
2022-08-14T16:00:54.909Z,57.74
2022-08-14T16:03:27.665Z,57.65
2022-08-14T16:06:10.843Z,57.88
2022-08-14T16:08:44.039Z,57.71
2022-08-14T16:11:12.454Z,58.24
2022-08-14T16:13:47.676Z,58.74
2022-08-14T16:16:47.293Z,58.57
2022-08-14T16:19:18.822Z,58.73
2022-08-14T16:22:02.472Z,58.50
2022-08-14T16:25:00.120Z,58.48
2022-08-14T16:27:37.072Z,59.08
2022-08-14T16:30:25.000Z,59.28
2022-08-14T16:32:57.155Z,59.43
2022-08-14T16:35:43.228Z,59.15
2022-08-14T16:38:44.375Z,59.13
2022-08-14T16:41:23.240Z,58.89
2022-08-14T16:44:04.643Z,59.60
2022-08-14T16:46:43.978Z,59.30
2022-08-14T16:49:13.786Z,59.06
2022-08-14T16:51:41.303Z,58.89
2022-08-14T16:54:34.209Z,58.66
2022-08-14T16:57:20.787Z,59.08
2022-08-14T16:59:52.315Z,59.44
2022-08-14T17:02:42.721Z,60.10
2022-08-14T17:05:17.620Z,59.61
2022-08-14T17:08:31.604Z,60.06
2022-08-14T17:11:09.790Z,60.40
2022-08-14T17:13:58.154Z,60.80
2022-08-14T17:16:26.029Z,60.60
2022-08-14T17:19:00.735Z,60.59
2022-08-14T17:21:38.385Z,61.12
2022-08-14T17:24:51.683Z,61.19
2022-08-14T17:26:57.538Z,61.23
2022-08-14T17:29:31.258Z,61.30
2022-08-14T17:32:28.416Z,61.32
2022-08-14T17:34:57.661Z,61.68
2022-08-14T17:37:45.224Z,62.12
2022-08-14T17:40:25.987Z,61.98
2022-08-14T17:43:01.751Z,62.12
2022-08-14T17:45:51.050Z,62.66
2022-08-14T17:49:10.031Z,62.59
2022-08-14T17:51:24.249Z,62.85
2022-08-14T17:54:02.389Z,63.12
2022-08-14T17:56:31.521Z,63.22
2022-08-14T17:59:05.183Z,63.39
2022-08-14T18:01:37.794Z,63.67
2022-08-14T18:04:24.366Z,63.53
2022-08-14T18:06:57.814Z,63.55
2022-08-14T18:09:57.320Z,63.57
2022-08-14T18:12:36.478Z,64.04
2022-08-14T18:15:17.331Z,64.10
2022-08-14T18:17:53.262Z,64.16
2022-08-14T18:21:39.634Z,64.36
2022-08-14T18:23:12.810Z,64.72
2022-08-14T18:25:47.320Z,64.73
2022-08-14T18:28:18.387Z,64.87
2022-08-14T18:31:44.069Z,65.07
2022-08-14T18:34:32.008Z,65.34
2022-08-14T18:37:12.524Z,65.52
2022-08-14T18:40:01.418Z,65.62
2022-08-14T18:42:50.866Z,65.78
2022-08-14T18:45:28.481Z,66.21
2022-08-14T18:48:50.727Z,66.48
2022-08-14T18:51:45.578Z,66.55
2022-08-14T18:54:29.983Z,66.80
2022-08-14T18:57:02.699Z,67.18
2022-08-14T18:59:39.248Z,67.27
2022-08-14T19:02:43.781Z,67.21
2022-08-14T19:05:10.875Z,67.52
2022-08-14T19:07:37.548Z,67.81
2022-08-14T19:10:06.954Z,68.02
2022-08-14T19:12:56.830Z,68.53
2022-08-14T19:15:38.080Z,68.93
2022-08-14T19:18:30.742Z,69.12
2022-08-14T19:21:13.304Z,69.15
2022-08-14T19:23:42.787Z,68.91
2022-08-14T19:26:35.769Z,69.11
2022-08-14T19:29:38.265Z,69.32
2022-08-14T19:32:40.774Z,69.54
2022-08-14T19:35:19.515Z,69.57
2022-08-14T19:37:52.546Z,69.79
2022-08-14T19:40:42.795Z,70.00
2022-08-14T19:43:10.664Z,70.25
2022-08-14T19:45:38.716Z,70.24
2022-08-14T19:48:15.808Z,70.18
2022-08-14T19:50:46.276Z,70.31
2022-08-14T19:53:17.304Z,70.33
2022-08-14T19:55:58.647Z,70.59
2022-08-14T19:58:55.514Z,70.83
2022-08-14T20:01:37.211Z,70.68
2022-08-14T20:04:08.092Z,70.90
2022-08-14T20:06:56.009Z,71.93
2022-08-14T20:11:03.674Z,71.77
2022-08-14T20:12:35.057Z,72.31
2022-08-14T20:15:15.414Z,72.76
2022-08-14T20:17:52.215Z,73.59
2022-08-14T20:20:30.760Z,73.92
2022-08-14T20:23:11.160Z,73.67
2022-08-14T20:25:45.327Z,73.91
2022-08-14T20:28:30.742Z,74.48
2022-08-14T20:31:17.641Z,74.44
2022-08-14T20:34:24.862Z,74.65
2022-08-14T20:37:04.198Z,74.55
2022-08-14T20:39:34.398Z,74.50
2022-08-14T20:42:30.384Z,74.65
2022-08-14T20:45:19.947Z,74.95
2022-08-14T20:48:01.857Z,75.08
2022-08-14T20:50:34.263Z,75.13
2022-08-14T20:53:25.323Z,75.04
2022-08-14T20:55:53.538Z,75.14
2022-08-14T20:58:45.903Z,75.72
2022-08-14T21:01:35.895Z,75.79
2022-08-14T21:04:05.115Z,75.90
2022-08-14T21:07:23.468Z,75.93
2022-08-14T21:10:05.535Z,76.56
2022-08-14T21:12:33.677Z,76.43
2022-08-14T21:15:03.901Z,76.80
2022-08-14T21:17:32.303Z,76.69
2022-08-14T21:20:26.547Z,76.52
2022-08-14T21:22:53.842Z,76.95
2022-08-14T21:25:23.378Z,76.98
2022-08-14T21:27:55.899Z,77.35
2022-08-14T21:30:51.350Z,77.86
2022-08-14T21:33:12.233Z,78.58
2022-08-14T21:35:44.496Z,78.88
2022-08-14T21:38:17.955Z,79.12
2022-08-14T21:40:48.767Z,79.52
2022-08-14T21:43:21.139Z,79.62
2022-08-14T21:45:53.647Z,79.73
2022-08-14T21:48:26.474Z,80.06
2022-08-14T21:51:02.007Z,80.52
2022-08-14T21:53:58.625Z,80.77
2022-08-14T21:56:38.665Z,80.91
2022-08-14T21:59:17.719Z,80.92
2022-08-14T22:01:59.507Z,80.94
2022-08-14T22:04:33.469Z,81.07
2022-08-14T22:07:10.300Z,81.20
2022-08-14T22:09:37.938Z,81.82
2022-08-14T22:12:10.880Z,81.73
2022-08-14T22:14:59.868Z,81.94
2022-08-14T22:17:32.178Z,82.17
2022-08-14T22:20:12.484Z,82.63
2022-08-14T22:22:43.730Z,82.73
2022-08-14T22:25:17.464Z,82.74
2022-08-14T22:27:55.314Z,82.70
2022-08-14T22:30:24.799Z,82.68
2022-08-14T22:32:57.462Z,83.14
2022-08-14T22:35:25.942Z,83.04
2022-08-14T22:38:36.662Z,83.24
2022-08-14T22:41:01.782Z,83.51
2022-08-14T22:43:31.803Z,83.70
2022-08-14T22:46:02.361Z,83.98
2022-08-14T22:48:29.939Z,84.51
2022-08-14T22:50:57.098Z,84.46
2022-08-14T22:53:24.561Z,84.79
2022-08-14T22:55:56.709Z,84.61
2022-08-14T22:58:31.386Z,84.77
2022-08-14T23:01:10.581Z,84.86
2022-08-14T23:03:42.426Z,85.17
2022-08-14T23:07:04.141Z,85.62
2022-08-14T23:09:34.826Z,85.62
2022-08-14T23:11:46.770Z,85.28
2022-08-14T23:14:15.300Z,85.03
2022-08-14T23:16:57.523Z,84.97
2022-08-14T23:19:25.559Z,85.17
2022-08-14T23:22:01.889Z,84.92
2022-08-14T23:24:28.650Z,85.06
2022-08-14T23:26:56.105Z,85.26
2022-08-14T23:29:22.773Z,85.34
2022-08-14T23:31:50.056Z,85.11
2022-08-14T23:34:20.892Z,85.02
2022-08-14T23:36:54.119Z,84.98
2022-08-14T23:39:30.202Z,85.28
2022-08-14T23:42:07.588Z,85.74
2022-08-14T23:44:37.708Z,85.58
2022-08-14T23:47:10.679Z,85.76
2022-08-14T23:49:56.542Z,85.80
2022-08-14T23:52:56.391Z,86.50
2022-08-14T23:55:13.607Z,87.15
2022-08-14T23:57:43.528Z,87.26
